createdAt,value
2023-02-02T00:01:47.637Z,7.39
2023-02-02T00:04:18.608Z,7.37
2023-02-02T00:06:46.134Z,7.35
2023-02-02T00:09:15.405Z,7.31
2023-02-02T00:11:44.591Z,7.27
2023-02-02T00:14:11.627Z,7.24
2023-02-02T00:16:41.360Z,7.22
2023-02-02T00:19:11.472Z,7.19
2023-02-02T00:21:38.413Z,7.15
2023-02-02T00:24:08.235Z,7.15
2023-02-02T00:26:36.073Z,7.11
2023-02-02T00:29:03.695Z,7.09
2023-02-02T00:31:30.358Z,7.06
2023-02-02T00:33:56.974Z,7.05
2023-02-02T00:36:23.715Z,7.05
2023-02-02T00:38:51.320Z,7.03
2023-02-02T00:41:17.873Z,7.01
2023-02-02T00:43:44.776Z,7.01
2023-02-02T00:46:17.023Z,7.00
2023-02-02T00:48:43.601Z,6.99
2023-02-02T00:51:10.578Z,6.99
2023-02-02T00:53:37.173Z,6.99
2023-02-02T00:56:04.009Z,6.98
2023-02-02T00:58:30.586Z,6.97
2023-02-02T01:00:57.229Z,6.98
2023-02-02T01:03:23.780Z,6.93
2023-02-02T01:05:52.052Z,6.92
2023-02-02T01:08:18.800Z,6.94
2023-02-02T01:10:45.401Z,6.92
2023-02-02T01:13:11.951Z,6.97
2023-02-02T01:15:38.481Z,6.97
2023-02-02T01:18:05.106Z,7.03
2023-02-02T01:20:32.357Z,7.09
2023-02-02T01:22:58.914Z,7.12
2023-02-02T01:25:25.885Z,7.15
2023-02-02T01:27:52.597Z,7.20
2023-02-02T01:30:19.201Z,7.27
2023-02-02T01:32:45.844Z,7.30
2023-02-02T01:35:12.540Z,7.34
2023-02-02T01:37:39.376Z,7.36
2023-02-02T01:40:07.174Z,7.41
2023-02-02T01:42:33.778Z,7.40
2023-02-02T01:47:51.913Z,7.43
2023-02-02T01:50:21.589Z,7.46
2023-02-02T01:52:51.180Z,7.48
2023-02-02T01:55:23.911Z,7.49
2023-02-02T01:57:57.434Z,7.52
2023-02-02T02:00:27.228Z,7.54
2023-02-02T02:03:00.200Z,7.56
2023-02-02T02:05:32.009Z,7.58
2023-02-02T02:08:08.261Z,7.61
2023-02-02T02:10:35.011Z,7.63
2023-02-02T02:13:01.707Z,7.66
2023-02-02T02:15:55.960Z,7.65
2023-02-02T02:18:34.247Z,7.68
2023-02-02T02:27:03.801Z,7.70
2023-02-02T02:30:10.215Z,7.69
2023-02-02T02:35:42.768Z,7.66
2023-02-02T02:38:49.119Z,7.62
2023-02-02T02:41:22.724Z,7.63
2023-02-02T02:43:56.753Z,7.64
2023-02-02T02:46:24.035Z,7.66
2023-02-02T02:48:50.588Z,7.65
2023-02-02T02:54:21.199Z,7.64
2023-02-02T03:07:29.531Z,7.55
2023-02-02T03:09:58.108Z,7.50
2023-02-02T03:12:24.849Z,7.46
2023-02-02T03:14:51.521Z,7.44
2023-02-02T03:17:18.051Z,7.41
2023-02-02T03:19:44.580Z,7.37
2023-02-02T03:22:11.110Z,7.36
2023-02-02T03:24:37.830Z,7.35
2023-02-02T03:27:04.662Z,7.32
2023-02-02T03:29:31.280Z,7.27
2023-02-02T03:31:57.920Z,7.29
2023-02-02T03:34:24.497Z,7.28
2023-02-02T03:36:51.124Z,7.26
2023-02-02T03:39:17.681Z,7.26
2023-02-02T03:41:44.198Z,7.23
2023-02-02T03:44:10.767Z,7.22
2023-02-02T03:46:37.332Z,7.19
2023-02-02T03:49:04.041Z,7.14
2023-02-02T03:51:30.573Z,7.15
2023-02-02T03:53:57.105Z,7.16
2023-02-02T03:56:23.661Z,7.16
2023-02-02T03:58:50.226Z,7.15
2023-02-02T04:01:16.893Z,7.15
2023-02-02T04:03:43.651Z,7.14
2023-02-02T04:06:10.282Z,7.11
2023-02-02T04:08:36.945Z,7.11
2023-02-02T04:11:03.638Z,7.11
2023-02-02T04:13:30.906Z,7.06
2023-02-02T04:16:00.631Z,7.07
2023-02-02T04:18:27.372Z,7.05
2023-02-02T04:21:02.558Z,7.02
2023-02-02T04:23:30.040Z,7.02
2023-02-02T04:25:57.634Z,7.00
2023-02-02T04:28:25.171Z,6.98
2023-02-02T04:30:53.167Z,6.96
2023-02-02T04:33:21.360Z,6.94
2023-02-02T04:35:47.943Z,6.91
2023-02-02T04:38:14.745Z,6.91
2023-02-02T04:40:43.013Z,6.89
2023-02-02T04:43:10.039Z,6.83
2023-02-02T04:45:36.816Z,6.87
2023-02-02T04:48:04.254Z,6.85
2023-02-02T04:50:31.197Z,6.85
2023-02-02T04:52:58.341Z,6.83
2023-02-02T04:55:25.238Z,6.80
2023-02-02T04:57:51.985Z,6.79
2023-02-02T05:00:18.962Z,6.77
2023-02-02T05:02:45.696Z,6.76
2023-02-02T05:05:14.299Z,6.75
2023-02-02T05:07:41.344Z,6.72
2023-02-02T05:10:09.885Z,6.72
2023-02-02T05:12:36.509Z,6.68
2023-02-02T05:15:05.492Z,6.68
2023-02-02T05:17:32.676Z,6.69
2023-02-02T05:19:59.183Z,6.70
2023-02-02T05:22:25.960Z,6.71
2023-02-02T05:24:52.548Z,6.71
2023-02-02T05:27:19.111Z,6.67
2023-02-02T05:29:47.804Z,6.68
2023-02-02T05:32:14.388Z,6.74
2023-02-02T05:34:40.929Z,6.75
2023-02-02T05:37:07.500Z,6.76
2023-02-02T05:39:34.120Z,6.77
2023-02-02T05:42:00.676Z,6.78
2023-02-02T05:44:27.225Z,6.82
2023-02-02T05:46:53.760Z,6.80
2023-02-02T05:49:20.312Z,6.82
2023-02-02T05:51:50.793Z,6.86
2023-02-02T05:54:20.701Z,6.87
2023-02-02T05:56:48.747Z,6.90
2023-02-02T05:59:15.384Z,6.93
2023-02-02T06:01:41.950Z,6.97
2023-02-02T06:04:08.649Z,6.98
2023-02-02T06:06:35.792Z,7.00
2023-02-02T06:09:02.566Z,7.01
2023-02-02T06:11:29.260Z,7.00
2023-02-02T06:13:56.511Z,6.98
2023-02-02T06:16:23.535Z,6.98
2023-02-02T06:18:50.139Z,6.96
2023-02-02T06:21:17.317Z,6.96
2023-02-02T06:23:45.879Z,6.94
2023-02-02T06:26:14.066Z,6.98
2023-02-02T06:28:40.992Z,6.99
2023-02-02T06:31:09.985Z,7.01
2023-02-02T06:33:37.519Z,7.00
2023-02-02T06:36:06.422Z,7.01
2023-02-02T06:38:33.807Z,7.01
2023-02-02T06:41:01.540Z,7.01
2023-02-02T06:43:29.067Z,6.99
2023-02-02T06:45:57.861Z,7.01
2023-02-02T06:48:24.985Z,7.01
2023-02-02T06:50:51.681Z,7.00
2023-02-02T06:53:23.009Z,7.01
2023-02-02T06:56:02.348Z,7.03
2023-02-02T06:58:30.508Z,7.04
2023-02-02T07:01:04.340Z,7.06
2023-02-02T07:03:31.076Z,7.09
2023-02-02T07:05:57.870Z,7.10
2023-02-02T07:08:24.546Z,7.11
2023-02-02T07:11:14.156Z,7.13
2023-02-02T07:13:37.930Z,7.13
2023-02-02T07:16:05.785Z,7.15
2023-02-02T07:18:32.593Z,7.17
2023-02-02T07:21:00.583Z,7.18
2023-02-02T07:23:28.411Z,7.20
2023-02-02T07:28:38.617Z,7.21
2023-02-02T07:31:20.826Z,7.19
2023-02-02T07:33:48.707Z,7.24
2023-02-02T07:36:20.104Z,7.20
2023-02-02T07:38:48.650Z,7.25
2023-02-02T07:41:16.237Z,7.26
2023-02-02T07:43:43.500Z,7.27
2023-02-02T07:46:12.856Z,7.28
2023-02-02T07:48:40.730Z,7.28
2023-02-02T07:51:11.221Z,7.28
2023-02-02T07:53:38.162Z,7.33
2023-02-02T07:56:10.568Z,7.34
2023-02-02T07:58:37.402Z,7.37
2023-02-02T08:01:05.731Z,7.38
2023-02-02T08:03:33.177Z,7.39
2023-02-02T08:06:00.116Z,7.39
2023-02-02T08:08:27.142Z,7.42
2023-02-02T08:10:54.485Z,7.43
2023-02-02T08:13:21.114Z,7.45
2023-02-02T08:15:47.808Z,7.47
2023-02-02T08:18:14.544Z,7.51
2023-02-02T08:20:41.080Z,7.52
2023-02-02T08:23:13.488Z,7.58
2023-02-02T08:25:40.348Z,7.63
2023-02-02T08:28:06.922Z,7.68
2023-02-02T08:30:35.375Z,7.77
2023-02-02T08:33:01.987Z,7.83
2023-02-02T08:35:28.585Z,7.92
2023-02-02T08:37:55.183Z,7.99
2023-02-02T08:40:21.793Z,8.06
2023-02-02T08:42:54.469Z,8.17
2023-02-02T08:46:02.282Z,8.27
2023-02-02T08:48:12.066Z,8.72
2023-02-02T08:50:39.470Z,9.40
2023-02-02T08:53:06.157Z,9.95
2023-02-02T08:55:32.782Z,10.46
2023-02-02T08:57:59.319Z,10.96
2023-02-02T09:00:25.941Z,11.36
2023-02-02T09:02:52.532Z,11.62
2023-02-02T09:05:19.119Z,11.87
2023-02-02T09:07:46.606Z,12.22
2023-02-02T09:10:13.424Z,12.50
2023-02-02T09:12:39.933Z,13.01
2023-02-02T09:15:06.864Z,13.46
2023-02-02T09:17:33.468Z,13.57
2023-02-02T09:20:00.034Z,13.55
2023-02-02T09:22:28.772Z,13.56
2023-02-02T09:24:55.435Z,13.80
2023-02-02T09:27:22.168Z,14.13
2023-02-02T09:29:48.910Z,14.43
2023-02-02T09:32:15.934Z,14.64
2023-02-02T09:34:42.461Z,14.80
2023-02-02T09:37:09.012Z,14.90
2023-02-02T09:39:35.570Z,14.93
2023-02-02T09:52:42.572Z,13.66
2023-02-02T09:57:53.154Z,14.25
2023-02-02T10:03:11.153Z,15.16
2023-02-02T10:05:50.429Z,15.58
2023-02-02T10:08:34.612Z,15.77
2023-02-02T10:11:08.489Z,15.80
2023-02-02T10:13:39.271Z,15.96
2023-02-02T10:16:17.175Z,16.13
2023-02-02T10:23:59.614Z,16.68
2023-02-02T10:32:33.473Z,16.05
2023-02-02T10:45:56.946Z,14.69
2023-02-02T10:48:32.656Z,14.74
2023-02-02T10:51:02.692Z,14.89
2023-02-02T10:53:30.383Z,14.84
2023-02-02T10:56:03.570Z,14.95
2023-02-02T10:58:44.427Z,14.99
2023-02-02T11:01:11.908Z,15.02
2023-02-02T11:03:40.145Z,14.93
2023-02-02T11:06:28.453Z,14.85
2023-02-02T11:09:05.413Z,14.71
2023-02-02T11:11:52.366Z,14.61
2023-02-02T11:14:30.376Z,14.47
2023-02-02T11:17:02.539Z,14.30
2023-02-02T11:19:32.641Z,14.19
2023-02-02T11:22:02.127Z,14.06
2023-02-02T11:24:45.302Z,13.96
2023-02-02T11:27:17.953Z,13.81
2023-02-02T11:29:48.158Z,13.72
2023-02-02T11:32:33.103Z,13.59
2023-02-02T11:37:51.515Z,13.53
2023-02-02T11:40:29.129Z,13.40
2023-02-02T11:42:58.104Z,13.33
2023-02-02T11:45:34.355Z,13.21
2023-02-02T11:48:06.918Z,13.17
2023-02-02T11:50:34.257Z,13.11
2023-02-02T11:53:00.994Z,13.03
2023-02-02T11:55:30.626Z,12.96
2023-02-02T12:00:59.418Z,12.79
2023-02-02T12:06:33.607Z,12.72
2023-02-02T12:09:02.464Z,12.76
2023-02-02T12:25:00.990Z,12.75
2023-02-02T12:30:27.514Z,12.54
2023-02-02T12:44:00.692Z,12.33
2023-02-02T12:54:48.226Z,12.22
2023-02-02T13:11:32.720Z,12.13
2023-02-02T13:14:08.550Z,12.13
2023-02-02T13:16:38.157Z,12.13
2023-02-02T13:19:10.408Z,12.15
2023-02-02T13:21:39.826Z,12.16
2023-02-02T13:24:12.182Z,12.16
2023-02-02T13:26:42.964Z,12.21
2023-02-02T13:32:15.201Z,12.19
2023-02-02T13:34:48.047Z,12.26
2023-02-02T13:37:39.919Z,12.15
2023-02-02T14:03:02.746Z,12.06
2023-02-02T14:05:33.207Z,12.05
2023-02-02T14:10:44.298Z,12.04
2023-02-02T14:15:55.590Z,11.98
2023-02-02T14:38:15.387Z,11.85
2023-02-02T14:43:48.838Z,11.84
2023-02-02T14:51:32.773Z,11.86
2023-02-02T14:54:02.551Z,11.85
2023-02-02T14:59:27.024Z,11.82
2023-02-02T15:02:01.103Z,11.81
2023-02-02T15:04:29.527Z,11.76
2023-02-02T15:06:56.713Z,11.72
2023-02-02T15:14:41.858Z,11.68
2023-02-02T15:20:21.219Z,11.57
2023-02-02T15:31:07.212Z,11.41
2023-02-02T15:33:39.633Z,11.32
2023-02-02T15:36:12.267Z,11.27
2023-02-02T15:38:41.818Z,11.29
2023-02-02T15:41:20.224Z,11.28
2023-02-02T15:43:47.055Z,11.27
2023-02-02T15:46:24.177Z,11.26
2023-02-02T15:49:34.277Z,11.15
2023-02-02T15:52:10.766Z,11.17
2023-02-02T15:54:38.334Z,11.15
2023-02-02T15:57:23.939Z,11.10
2023-02-02T15:59:50.654Z,11.11
2023-02-02T16:04:55.903Z,11.04
2023-02-02T16:07:28.790Z,11.01
2023-02-02T16:09:57.549Z,10.98
2023-02-02T16:12:24.523Z,10.97
2023-02-02T16:14:53.605Z,10.95
2023-02-02T16:17:23.004Z,10.94
2023-02-02T16:19:51.401Z,10.92
2023-02-02T16:22:23.907Z,10.89
2023-02-02T16:24:54.192Z,10.90
2023-02-02T16:27:24.453Z,10.90
2023-02-02T16:29:51.822Z,10.86
2023-02-02T16:32:38.780Z,10.83
2023-02-02T16:35:09.745Z,10.85
2023-02-02T16:37:36.588Z,10.79
2023-02-02T16:40:28.560Z,10.78
2023-02-02T16:43:19.862Z,10.78
2023-02-02T16:45:50.787Z,10.79
2023-02-02T16:48:39.249Z,10.71
2023-02-02T16:56:48.721Z,10.82
2023-02-02T16:59:24.857Z,10.73
2023-02-02T17:01:55.393Z,10.76
2023-02-02T17:04:29.287Z,10.73
2023-02-02T17:07:05.271Z,10.71
2023-02-02T17:09:37.350Z,10.66
2023-02-02T17:12:33.213Z,10.62
2023-02-02T17:15:22.858Z,10.54
2023-02-02T17:17:49.676Z,10.51
2023-02-02T17:20:17.832Z,10.52
2023-02-02T17:22:47.617Z,10.48
2023-02-02T17:25:17.108Z,10.42
2023-02-02T17:27:45.175Z,10.38
2023-02-02T17:30:18.504Z,10.33
2023-02-02T17:32:45.604Z,10.31
2023-02-02T17:35:17.979Z,10.35
2023-02-02T17:37:44.578Z,10.30
2023-02-02T17:40:16.034Z,10.27
2023-02-02T17:42:45.049Z,10.28
2023-02-02T17:45:20.200Z,10.21
2023-02-02T17:47:46.798Z,10.27
2023-02-02T17:50:13.461Z,10.25
2023-02-02T17:52:40.108Z,10.26
2023-02-02T17:55:14.329Z,10.22
2023-02-02T17:57:41.138Z,10.14
2023-02-02T18:00:08.384Z,10.23
2023-02-02T18:02:35.120Z,10.22
2023-02-02T18:05:03.150Z,10.23
2023-02-02T18:07:29.702Z,10.19
2023-02-02T18:09:56.256Z,10.22
2023-02-02T18:12:23.523Z,10.18
2023-02-02T18:14:50.094Z,10.21
2023-02-02T18:17:16.626Z,10.16
2023-02-02T18:19:45.183Z,10.09
2023-02-02T18:22:13.775Z,10.14
2023-02-02T18:24:41.088Z,10.15
2023-02-02T18:27:08.423Z,10.12
2023-02-02T18:29:35.367Z,10.16
2023-02-02T18:32:02.352Z,10.17
2023-02-02T18:34:30.544Z,10.12
2023-02-02T18:36:57.103Z,10.19
2023-02-02T18:39:23.718Z,10.13
2023-02-02T18:41:50.347Z,10.14
2023-02-02T18:44:17.251Z,10.17
2023-02-02T18:46:43.805Z,10.12
2023-02-02T18:49:10.986Z,10.15
2023-02-02T18:51:37.605Z,10.11
2023-02-02T18:54:04.239Z,10.13
2023-02-02T18:56:30.874Z,10.13
2023-02-02T18:58:58.188Z,10.09
2023-02-02T19:01:26.000Z,10.12
2023-02-02T19:03:57.280Z,10.09
2023-02-02T19:06:44.776Z,10.11
2023-02-02T19:09:13.741Z,10.08
2023-02-02T19:11:43.891Z,10.10
2023-02-02T19:14:12.861Z,10.01
2023-02-02T19:16:39.416Z,10.02
2023-02-02T19:19:21.941Z,10.05
2023-02-02T19:21:48.814Z,10.09
2023-02-02T19:24:15.809Z,10.10
2023-02-02T19:26:46.934Z,10.10
2023-02-02T19:29:18.762Z,10.11
2023-02-02T19:31:45.914Z,10.06
2023-02-02T19:34:16.995Z,10.06
2023-02-02T19:36:46.879Z,10.07
2023-02-02T19:39:18.612Z,10.08
2023-02-02T19:41:45.286Z,10.08
2023-02-02T19:44:17.379Z,10.08
2023-02-02T19:46:46.572Z,10.10
2023-02-02T19:49:22.012Z,10.08
2023-02-02T19:51:53.612Z,10.05
2023-02-02T19:54:39.373Z,9.99
2023-02-02T19:59:45.439Z,9.98
2023-02-02T20:02:41.025Z,9.89
2023-02-02T20:07:51.979Z,9.93
2023-02-02T20:10:27.428Z,9.92
2023-02-02T20:12:54.976Z,9.93
2023-02-02T20:18:01.425Z,9.95
2023-02-02T20:20:33.558Z,9.92
2023-02-02T20:23:00.505Z,9.90
2023-02-02T20:25:29.263Z,9.87
2023-02-02T20:27:58.936Z,9.82
2023-02-02T20:30:30.877Z,9.75
2023-02-02T20:32:59.196Z,9.70
2023-02-02T20:35:35.933Z,9.63
2023-02-02T20:38:13.258Z,9.61
2023-02-02T20:40:39.831Z,9.59
2023-02-02T20:43:06.422Z,9.57
2023-02-02T20:45:33.047Z,9.59
2023-02-02T20:47:59.576Z,9.60
2023-02-02T20:50:26.332Z,9.62
2023-02-02T20:52:54.056Z,9.64
2023-02-02T20:55:20.827Z,9.67
2023-02-02T20:57:47.423Z,9.67
2023-02-02T21:00:17.166Z,9.66
2023-02-02T21:02:43.808Z,9.70
2023-02-02T21:05:10.397Z,9.70
2023-02-02T21:07:37.139Z,9.70
2023-02-02T21:10:05.114Z,9.72
2023-02-02T21:12:31.733Z,9.73
2023-02-02T21:14:58.361Z,9.73
2023-02-02T21:17:24.996Z,9.73
2023-02-02T21:19:51.567Z,9.70
2023-02-02T21:22:18.129Z,9.65
2023-02-02T21:24:44.654Z,9.58
2023-02-02T21:27:11.347Z,9.52
2023-02-02T21:29:38.482Z,9.44
2023-02-02T21:32:06.057Z,9.39
2023-02-02T21:34:33.183Z,9.35
2023-02-02T21:36:59.962Z,9.30
2023-02-02T21:42:15.639Z,9.19
2023-02-02T21:47:32.360Z,9.12
2023-02-02T21:50:19.273Z,9.08
2023-02-02T21:52:46.371Z,9.05
2023-02-02T21:58:22.255Z,8.95
2023-02-02T22:00:50.328Z,8.96
2023-02-02T22:06:17.890Z,8.92
2023-02-02T22:08:44.447Z,8.92
2023-02-02T22:11:24.351Z,8.87
2023-02-02T22:13:52.864Z,8.91
2023-02-02T22:16:20.889Z,8.90
2023-02-02T22:18:47.849Z,8.87
2023-02-02T22:21:18.801Z,8.87
2023-02-02T22:23:46.550Z,8.86
2023-02-02T22:26:29.313Z,8.84
2023-02-02T22:28:56.268Z,8.83
2023-02-02T22:31:22.930Z,8.85
2023-02-02T22:33:49.595Z,8.86
2023-02-02T22:36:16.161Z,8.86
2023-02-02T22:38:42.668Z,8.87
2023-02-02T22:41:09.650Z,8.90
2023-02-02T22:43:36.435Z,8.90
2023-02-02T22:46:03.135Z,8.90
2023-02-02T22:48:29.732Z,8.90
2023-02-02T22:50:56.266Z,8.90
2023-02-02T22:53:22.806Z,8.91
2023-02-02T22:55:56.304Z,8.92
2023-02-02T22:58:24.534Z,8.96
2023-02-02T23:00:51.452Z,9.02
2023-02-02T23:03:18.264Z,9.03
2023-02-02T23:05:44.897Z,9.08
2023-02-02T23:08:11.379Z,9.13
2023-02-02T23:10:38.266Z,9.12
2023-02-02T23:13:05.890Z,9.16
2023-02-02T23:15:32.972Z,9.19
2023-02-02T23:17:59.782Z,9.20
2023-02-02T23:20:27.756Z,9.19
2023-02-02T23:22:54.556Z,9.22
2023-02-02T23:25:22.089Z,9.23
2023-02-02T23:27:49.033Z,9.23
2023-02-02T23:30:15.917Z,9.23
2023-02-02T23:32:42.615Z,9.25
2023-02-02T23:35:11.012Z,9.28
2023-02-02T23:37:37.787Z,9.32
2023-02-02T23:40:05.039Z,9.34
2023-02-02T23:42:32.082Z,9.33
2023-02-02T23:44:58.625Z,9.35
2023-02-02T23:47:25.730Z,9.35
2023-02-02T23:49:52.534Z,9.33
2023-02-02T23:52:19.129Z,9.33
2023-02-02T23:54:45.848Z,9.34
2023-02-02T23:57:12.429Z,9.30
2023-02-02T23:59:38.939Z,9.31
